sensor_id;sensor_type;location;lat;lon;timestamp;pressure;altitude;pressure_sealevel;temperature;humidity
75945;BME280;64628;50.104;14.614;2023-02-28T04:55:39;99804.26;;;-1.30;44.73
75945;BME280;64628;50.104;14.614;2023-02-28T04:58:04;99805.00;;;-1.29;44.60
75945;BME280;64628;50.104;14.614;2023-02-28T05:00:29;99804.92;;;-1.55;44.58
75945;BME280;64628;50.104;14.614;2023-02-28T05:02:55;99808.78;;;-1.39;44.82
75945;BME280;64628;50.104;14.614;2023-02-28T05:05:25;99811.97;;;-1.43;44.84
75945;BME280;64628;50.104;14.614;2023-02-28T05:07:42;99813.39;;;-1.68;44.81
75945;BME280;64628;50.104;14.614;2023-02-28T05:10:13;99816.72;;;-1.48;44.83
75945;BME280;64628;50.104;14.614;2023-02-28T05:12:37;99817.84;;;-1.46;44.73
75945;BME280;64628;50.104;14.614;2023-02-28T05:15:04;99818.38;;;-1.57;44.87
75945;BME280;64628;50.104;14.614;2023-02-28T05:17:22;99819.46;;;-1.57;44.89
75945;BME280;64628;50.104;14.614;2023-02-28T05:19:49;99817.59;;;-1.60;44.93
75945;BME280;64628;50.104;14.614;2023-02-28T05:22:18;99820.35;;;-1.42;44.90
75945;BME280;64628;50.104;14.614;2023-02-28T05:24:45;99819.47;;;-1.64;44.89
75945;BME280;64628;50.104;14.614;2023-02-28T05:27:11;99822.80;;;-1.92;44.87
75945;BME280;64628;50.104;14.614;2023-02-28T05:29:31;99823.03;;;-1.69;45.03
75945;BME280;64628;50.104;14.614;2023-02-28T05:31:56;99825.92;;;-1.72;45.03
75945;BME280;64628;50.104;14.614;2023-02-28T05:34:27;99824.91;;;-1.74;45.13
75945;BME280;64628;50.104;14.614;2023-02-28T05:36:53;99826.52;;;-1.42;44.90
75945;BME280;64628;50.104;14.614;2023-02-28T05:39:22;99828.25;;;-1.55;45.10
75945;BME280;64628;50.104;14.614;2023-02-28T05:41:39;99830.62;;;-1.83;45.10
75945;BME280;64628;50.104;14.614;2023-02-28T05:44:03;99833.23;;;-1.85;45.15
75945;BME280;64628;50.104;14.614;2023-02-28T05:46:35;99836.74;;;-1.90;45.25
75945;BME280;64628;50.104;14.614;2023-02-28T05:49:01;99839.27;;;-1.64;45.21
75945;BME280;64628;50.104;14.614;2023-02-28T05:51:19;99844.43;;;-1.66;45.28
75945;BME280;64628;50.104;14.614;2023-02-28T05:53:50;99846.04;;;-1.71;45.41
75945;BME280;64628;50.104;14.614;2023-02-28T05:56:12;99846.14;;;-1.87;45.31
75945;BME280;64628;50.104;14.614;2023-02-28T05:58:37;99847.54;;;-1.85;45.31
75945;BME280;64628;50.104;14.614;2023-02-28T06:03:28;99851.30;;;-1.82;45.36
75945;BME280;64628;50.104;14.614;2023-02-28T06:05:53;99848.65;;;-1.68;45.16
75945;BME280;64628;50.104;14.614;2023-02-28T06:08:18;99849.91;;;-2.12;45.16
75945;BME280;64628;50.104;14.614;2023-02-28T06:10:43;99850.91;;;-1.54;44.96
75945;BME280;64628;50.104;14.614;2023-02-28T06:13:09;99853.50;;;-1.46;44.86
75945;BME280;64628;50.104;14.614;2023-02-28T06:15:34;99854.73;;;-1.38;44.68
75945;BME280;64628;50.104;14.614;2023-02-28T15:52:42;99741.52;;;8.79;23.76
75945;BME280;64628;50.104;14.614;2023-02-28T15:55:10;99743.44;;;8.23;24.10
75945;BME280;64628;50.104;14.614;2023-02-28T15:57:29;99746.16;;;8.25;24.39
75945;BME280;64628;50.104;14.614;2023-02-28T15:59:56;99742.69;;;8.23;24.68
75945;BME280;64628;50.104;14.614;2023-02-28T16:02:21;99742.28;;;7.36;24.97
75945;BME280;64628;50.104;14.614;2023-02-28T16:04:55;99751.10;;;7.69;25.47
75945;BME280;64628;50.104;14.614;2023-02-28T16:07:13;99753.64;;;7.50;25.59
75945;BME280;64628;50.104;14.614;2023-02-28T16:09:33;99756.49;;;7.00;25.88
75945;BME280;64628;50.104;14.614;2023-02-28T16:12:09;99756.00;;;7.18;26.28
75945;BME280;64628;50.104;14.614;2023-02-28T16:14:30;99758.60;;;6.68;26.82
75945;BME280;64628;50.104;14.614;2023-02-28T16:16:52;99759.49;;;6.53;27.05
75945;BME280;64628;50.104;14.614;2023-02-28T16:19:16;99763.00;;;6.49;27.19
75945;BME280;64628;50.104;14.614;2023-02-28T16:21:41;99761.95;;;6.12;27.51
75945;BME280;64628;50.104;14.614;2023-02-28T16:24:07;99762.53;;;6.30;27.87
75945;BME280;64628;50.104;14.614;2023-02-28T16:26:31;99760.64;;;5.92;28.35
75945;BME280;64628;50.104;14.614;2023-02-28T16:28:57;99759.82;;;5.54;28.58
75945;BME280;64628;50.104;14.614;2023-02-28T16:31:22;99765.37;;;5.73;29.00
75945;BME280;64628;50.104;14.614;2023-02-28T16:33:48;99770.50;;;5.49;29.11
75945;BME280;64628;50.104;14.614;2023-02-28T16:36:17;99769.16;;;5.31;29.42
75945;BME280;64628;50.104;14.614;2023-02-28T16:38:41;99777.57;;;5.08;29.64
75945;BME280;64628;50.104;14.614;2023-02-28T16:41:03;99780.30;;;5.40;29.96
75945;BME280;64628;50.104;14.614;2023-02-28T16:45:55;99781.11;;;4.94;30.49
75945;BME280;64628;50.104;14.614;2023-02-28T16:48:19;99781.25;;;4.96;30.77
75945;BME280;64628;50.104;14.614;2023-02-28T16:50:44;99781.83;;;4.10;31.48
75945;BME280;64628;50.104;14.614;2023-02-28T16:53:10;99787.45;;;3.99;31.72
75945;BME280;64628;50.104;14.614;2023-02-28T16:55:36;99789.94;;;3.98;32.20
75945;BME280;64628;50.104;14.614;2023-02-28T16:58:02;99790.89;;;3.76;32.57
75945;BME280;64628;50.104;14.614;2023-02-28T17:00:29;99792.32;;;3.59;32.85
75945;BME280;64628;50.104;14.614;2023-02-28T17:02:52;99796.29;;;3.85;33.08
75945;BME280;64628;50.104;14.614;2023-02-28T17:05:18;99795.75;;;3.46;33.19
75945;BME280;64628;50.104;14.614;2023-02-28T17:07:43;99794.65;;;3.29;33.34
75945;BME280;64628;50.104;14.614;2023-02-28T17:10:14;99797.68;;;3.18;33.50
75945;BME280;64628;50.104;14.614;2023-02-28T17:12:34;99796.88;;;3.07;33.56
75945;BME280;64628;50.104;14.614;2023-02-28T17:14:59;99801.01;;;3.18;33.54
75945;BME280;64628;50.104;14.614;2023-02-28T17:17:26;99799.71;;;2.78;33.60
75945;BME280;64628;50.104;14.614;2023-02-28T17:19:51;99804.81;;;2.95;33.48
75945;BME280;64628;50.104;14.614;2023-02-28T17:22:17;99802.44;;;3.13;33.53
75945;BME280;64628;50.104;14.614;2023-02-28T17:24:43;99802.84;;;2.77;33.80
75945;BME280;64628;50.104;14.614;2023-02-28T17:27:11;99805.45;;;2.64;33.94
75945;BME280;64628;50.104;14.614;2023-02-28T17:29:33;99807.16;;;2.78;34.01
75945;BME280;64628;50.104;14.614;2023-02-28T17:31:59;99810.46;;;2.42;34.39
75945;BME280;64628;50.104;14.614;2023-02-28T17:34:26;99807.28;;;2.55;34.29
75945;BME280;64628;50.104;14.614;2023-02-28T17:36:51;99806.90;;;2.28;34.47
75945;BME280;64628;50.104;14.614;2023-02-28T17:39:15;99806.88;;;2.23;34.54
75945;BME280;64628;50.104;14.614;2023-02-28T17:41:40;99809.04;;;2.40;34.45
75945;BME280;64628;50.104;14.614;2023-02-28T17:44:06;99809.41;;;2.65;34.27
75945;BME280;64628;50.104;14.614;2023-02-28T17:46:31;99812.12;;;2.09;34.47
75945;BME280;64628;50.104;14.614;2023-02-28T17:48:57;99813.43;;;2.50;34.53
75945;BME280;64628;50.104;14.614;2023-02-28T17:51:23;99809.42;;;2.43;34.66
75945;BME280;64628;50.104;14.614;2023-02-28T17:53:48;99811.70;;;2.11;34.86
75945;BME280;64628;50.104;14.614;2023-02-28T17:56:15;99811.54;;;2.02;35.30
75945;BME280;64628;50.104;14.614;2023-02-28T17:58:38;99814.27;;;1.95;35.34
75945;BME280;64628;50.104;14.614;2023-02-28T18:01:03;99814.54;;;2.07;35.78
75945;BME280;64628;50.104;14.614;2023-02-28T18:03:34;99813.43;;;2.02;35.94
75945;BME280;64628;50.104;14.614;2023-02-28T18:05:54;99815.75;;;2.00;35.86
75945;BME280;64628;50.104;14.614;2023-02-28T18:08:18;99815.96;;;1.91;36.19
75945;BME280;64628;50.104;14.614;2023-02-28T18:10:44;99817.26;;;1.85;36.36
75945;BME280;64628;50.104;14.614;2023-02-28T18:13:10;99819.40;;;1.78;36.31
75945;BME280;64628;50.104;14.614;2023-02-28T18:15:35;99820.83;;;1.71;36.43
75945;BME280;64628;50.104;14.614;2023-02-28T18:18:01;99819.01;;;1.59;36.92
75945;BME280;64628;50.104;14.614;2023-02-28T18:20:26;99821.57;;;1.49;36.83
75945;BME280;64628;50.104;14.614;2023-02-28T18:22:51;99822.14;;;1.92;37.09
75945;BME280;64628;50.104;14.614;2023-02-28T18:25:16;99822.11;;;1.67;37.05
75945;BME280;64628;50.104;14.614;2023-02-28T18:27:43;99820.29;;;1.38;37.05
75945;BME280;64628;50.104;14.614;2023-02-28T18:30:09;99817.07;;;1.41;36.84
75945;BME280;64628;50.104;14.614;2023-02-28T18:32:34;99814.49;;;1.60;36.88
75945;BME280;64628;50.104;14.614;2023-02-28T18:34:58;99813.61;;;1.30;37.08
75945;BME280;64628;50.104;14.614;2023-02-28T18:37:24;99811.77;;;1.43;37.14
75945;BME280;64628;50.104;14.614;2023-02-28T18:42:15;99814.60;;;1.52;36.65
75945;BME280;64628;50.104;14.614;2023-02-28T18:44:42;99817.30;;;1.47;36.55
75945;BME280;64628;50.104;14.614;2023-02-28T18:47:06;99815.81;;;1.36;36.74
75945;BME280;64628;50.104;14.614;2023-02-28T18:49:31;99817.07;;;1.25;37.00
75945;BME280;64628;50.104;14.614;2023-02-28T18:51:57;99816.00;;;1.61;37.29
75945;BME280;64628;50.104;14.614;2023-02-28T18:54:22;99820.30;;;1.30;37.41
75945;BME280;64628;50.104;14.614;2023-02-28T18:56:48;99820.93;;;1.25;37.62
75945;BME280;64628;50.104;14.614;2023-02-28T18:59:14;99822.77;;;1.49;37.67
75945;BME280;64628;50.104;14.614;2023-02-28T19:01:39;99823.18;;;1.23;37.75
75945;BME280;64628;50.104;14.614;2023-02-28T19:04:05;99825.10;;;1.35;37.83
75945;BME280;64628;50.104;14.614;2023-02-28T19:06:32;99821.58;;;1.11;38.03
75945;BME280;64628;50.104;14.614;2023-02-28T19:08:57;99822.58;;;1.29;38.09
75945;BME280;64628;50.104;14.614;2023-02-28T19:11:22;99821.09;;;1.16;38.19
75945;BME280;64628;50.104;14.614;2023-02-28T19:13:48;99818.71;;;0.95;38.03
75945;BME280;64628;50.104;14.614;2023-02-28T19:16:15;99816.76;;;0.95;37.91
75945;BME280;64628;50.104;14.614;2023-02-28T19:18:39;99815.11;;;0.96;37.54
75945;BME280;64628;50.104;14.614;2023-02-28T19:21:06;99810.62;;;0.94;37.39
75945;BME280;64628;50.104;14.614;2023-02-28T19:23:31;99807.31;;;1.18;37.58
75945;BME280;64628;50.104;14.614;2023-02-28T19:25:55;99805.39;;;0.95;37.55
75945;BME280;64628;50.104;14.614;2023-02-28T19:28:20;99801.89;;;0.73;37.50
75945;BME280;64628;50.104;14.614;2023-02-28T19:30:46;99797.66;;;0.96;37.66
75945;BME280;64628;50.104;14.614;2023-02-28T19:33:11;99795.84;;;1.18;37.76
75945;BME280;64628;50.104;14.614;2023-02-28T19:35:39;99795.70;;;0.96;37.85
75945;BME280;64628;50.104;14.614;2023-02-28T19:38:02;99802.03;;;1.11;38.32
75945;BME280;64628;50.104;14.614;2023-02-28T19:40:27;99806.86;;;1.04;38.38
75945;BME280;64628;50.104;14.614;2023-02-28T19:42:53;99807.82;;;0.98;38.71
75945;BME280;64628;50.104;14.614;2023-02-28T19:45:19;99802.55;;;0.98;38.43
75945;BME280;64628;50.104;14.614;2023-02-28T19:47:44;99802.74;;;0.69;38.52
75945;BME280;64628;50.104;14.614;2023-02-28T19:50:10;99802.77;;;0.94;38.38
75945;BME280;64628;50.104;14.614;2023-02-28T19:52:35;99804.47;;;0.93;38.36
75945;BME280;64628;50.104;14.614;2023-02-28T19:55:00;99803.16;;;0.94;38.40
75945;BME280;64628;50.104;14.614;2023-02-28T19:57:26;99805.79;;;0.88;38.65
75945;BME280;64628;50.104;14.614;2023-02-28T19:59:52;99810.05;;;0.91;38.38
75945;BME280;64628;50.104;14.614;2023-02-28T20:02:22;99813.92;;;0.86;38.37
75945;BME280;64628;50.104;14.614;2023-02-28T20:04:46;99816.24;;;0.56;38.40
75945;BME280;64628;50.104;14.614;2023-02-28T20:07:09;99820.28;;;0.79;38.46
75945;BME280;64628;50.104;14.614;2023-02-28T20:09:34;99820.85;;;0.80;38.46
75945;BME280;64628;50.104;14.614;2023-02-28T20:11:58;99824.57;;;0.75;38.62
75945;BME280;64628;50.104;14.614;2023-02-28T20:14:24;99824.07;;;0.69;38.75
75945;BME280;64628;50.104;14.614;2023-02-28T20:16:49;99826.24;;;0.68;38.90
75945;BME280;64628;50.104;14.614;2023-02-28T20:19:14;99827.51;;;0.47;39.01
75945;BME280;64628;50.104;14.614;2023-02-28T20:21:40;99827.30;;;0.70;39.01
75945;BME280;64628;50.104;14.614;2023-02-28T20:24:06;99826.47;;;0.39;39.06
75945;BME280;64628;50.104;14.614;2023-02-28T20:26:32;99825.75;;;0.61;38.95
75945;BME280;64628;50.104;14.614;2023-02-28T20:28:57;99829.14;;;0.63;39.07
75945;BME280;64628;50.104;14.614;2023-02-28T20:31:24;99827.82;;;0.60;39.15
75945;BME280;64628;50.104;14.614;2023-02-28T20:33:49;99828.58;;;0.48;39.35
75945;BME280;64628;50.104;14.614;2023-02-28T20:36:14;99824.05;;;0.46;39.54
75945;BME280;64628;50.104;14.614;2023-02-28T20:38:39;99824.29;;;0.40;39.50
75945;BME280;64628;50.104;14.614;2023-02-28T20:41:10;99823.82;;;0.43;39.57
75945;BME280;64628;50.104;14.614;2023-02-28T20:43:30;99822.60;;;0.40;39.57
75945;BME280;64628;50.104;14.614;2023-02-28T20:45:57;99822.15;;;0.41;39.48
75945;BME280;64628;50.104;14.614;2023-02-28T20:48:22;99817.60;;;0.64;39.38
75945;BME280;64628;50.104;14.614;2023-02-28T20:50:48;99815.37;;;0.37;39.34
75945;BME280;64628;50.104;14.614;2023-02-28T20:53:12;99815.29;;;0.31;39.70
75945;BME280;64628;50.104;14.614;2023-02-28T20:55:38;99813.37;;;0.71;39.84
75945;BME280;64628;50.104;14.614;2023-02-28T20:58:04;99813.11;;;-0.01;39.88
75945;BME280;64628;50.104;14.614;2023-02-28T21:00:35;99814.81;;;0.17;39.81
75945;BME280;64628;50.104;14.614;2023-02-28T21:02:55;99816.94;;;0.36;40.14
75945;BME280;64628;50.104;14.614;2023-02-28T21:05:26;99818.19;;;0.08;40.31
75945;BME280;64628;50.104;14.614;2023-02-28T21:07:45;99820.48;;;0.55;40.21
75945;BME280;64628;50.104;14.614;2023-02-28T21:10:11;99820.58;;;0.04;40.23
75945;BME280;64628;50.104;14.614;2023-02-28T21:12:36;99824.97;;;0.00;40.40
75945;BME280;64628;50.104;14.614;2023-02-28T21:15:02;99828.76;;;0.45;40.34
75945;BME280;64628;50.104;14.614;2023-02-28T21:17:28;99833.40;;;-0.05;40.49
75945;BME280;64628;50.104;14.614;2023-02-28T21:19:59;99832.90;;;0.20;40.40
75945;BME280;64628;50.104;14.614;2023-02-28T21:22:19;99833.08;;;-0.01;40.43
75945;BME280;64628;50.104;14.614;2023-02-28T21:24:45;99833.44;;;-0.08;40.68
75945;BME280;64628;50.104;14.614;2023-02-28T21:27:10;99831.74;;;-0.16;40.82
75945;BME280;64628;50.104;14.614;2023-02-28T21:29:36;99829.03;;;-0.16;40.80
75945;BME280;64628;50.104;14.614;2023-02-28T21:32:01;99829.09;;;0.32;40.77
75945;BME280;64628;50.104;14.614;2023-02-28T21:34:26;99830.55;;;0.27;41.18
75945;BME280;64628;50.104;14.614;2023-02-28T21:36:52;99830.28;;;0.27;40.96
75945;BME280;64628;50.104;14.614;2023-02-28T21:39:19;99825.94;;;0.03;40.81
75945;BME280;64628;50.104;14.614;2023-02-28T21:41:43;99823.97;;;-0.20;40.93
75945;BME280;64628;50.104;14.614;2023-02-28T21:44:09;99821.97;;;0.23;41.02
75945;BME280;64628;50.104;14.614;2023-02-28T21:46:33;99823.31;;;-0.28;41.19
75945;BME280;64628;50.104;14.614;2023-02-28T21:48:58;99820.97;;;0.20;41.17
75945;BME280;64628;50.104;14.614;2023-02-28T21:51:26;99825.47;;;-0.32;41.29
75945;BME280;64628;50.104;14.614;2023-02-28T21:53:50;99825.66;;;-0.34;41.17
75945;BME280;64628;50.104;14.614;2023-02-28T21:56:16;99827.31;;;-0.12;41.16
75945;BME280;64628;50.104;14.614;2023-02-28T21:58:41;99829.69;;;-0.39;41.35
75945;BME280;64628;50.104;14.614;2023-02-28T22:01:08;99827.78;;;0.05;41.38
75945;BME280;64628;50.104;14.614;2023-02-28T22:03:32;99829.13;;;0.01;41.45
75945;BME280;64628;50.104;14.614;2023-02-28T22:05:57;99831.33;;;-0.45;41.24
75945;BME280;64628;50.104;14.614;2023-02-28T22:08:23;99831.21;;;-0.49;41.34
75945;BME280;64628;50.104;14.614;2023-02-28T22:10:48;99831.47;;;-0.00;41.26
75945;BME280;64628;50.104;14.614;2023-02-28T22:13:14;99831.51;;;-0.27;41.33
75945;BME280;64628;50.104;14.614;2023-02-28T22:15:39;99829.14;;;-0.10;41.39
75945;BME280;64628;50.104;14.614;2023-02-28T22:18:05;99830.41;;;-0.06;41.50
75945;BME280;64628;50.104;14.614;2023-02-28T22:20:30;99833.95;;;-0.75;41.64
75945;BME280;64628;50.104;14.614;2023-02-28T22:22:55;99836.94;;;-0.56;41.39
75945;BME280;64628;50.104;14.614;2023-02-28T22:25:21;99838.08;;;-0.19;40.94
75945;BME280;64628;50.104;14.614;2023-02-28T22:30:12;99842.25;;;0.08;40.29
75945;BME280;64628;50.104;14.614;2023-02-28T22:32:37;99841.94;;;-0.19;40.62
75945;BME280;64628;50.104;14.614;2023-02-28T22:35:03;99845.05;;;-0.49;40.99
75945;BME280;64628;50.104;14.614;2023-02-28T22:37:28;99842.02;;;-0.40;41.37
75945;BME280;64628;50.104;14.614;2023-02-28T22:39:54;99841.56;;;-0.24;41.41
75945;BME280;64628;50.104;14.614;2023-02-28T22:42:19;99844.69;;;-0.56;41.70
75945;BME280;64628;50.104;14.614;2023-02-28T22:44:44;99843.33;;;-0.37;41.79
75945;BME280;64628;50.104;14.614;2023-02-28T22:47:10;99839.01;;;-0.38;41.79
75945;BME280;64628;50.104;14.614;2023-02-28T22:49:36;99840.90;;;-0.47;41.90
75945;BME280;64628;50.104;14.614;2023-02-28T22:52:01;99838.58;;;-0.48;42.14
75945;BME280;64628;50.104;14.614;2023-02-28T22:54:26;99840.48;;;-0.49;42.08
75945;BME280;64628;50.104;14.614;2023-02-28T22:56:52;99836.50;;;-0.47;41.99
75945;BME280;64628;50.104;14.614;2023-02-28T22:59:17;99839.87;;;-0.53;42.09
75945;BME280;64628;50.104;14.614;2023-02-28T23:01:43;99842.44;;;-0.54;42.14
75945;BME280;64628;50.104;14.614;2023-02-28T23:04:09;99840.69;;;-0.82;42.15
75945;BME280;64628;50.104;14.614;2023-02-28T23:06:36;99839.16;;;-0.62;42.36
75945;BME280;64628;50.104;14.614;2023-02-28T23:09:01;99838.68;;;-0.63;42.40
75945;BME280;64628;50.104;14.614;2023-02-28T23:11:27;99837.71;;;-0.88;42.60
75945;BME280;64628;50.104;14.614;2023-02-28T23:13:50;99841.96;;;-0.66;42.68
75945;BME280;64628;50.104;14.614;2023-02-28T23:16:16;99841.83;;;-0.64;42.57
75945;BME280;64628;50.104;14.614;2023-02-28T23:18:42;99839.09;;;-0.66;42.66
75945;BME280;64628;50.104;14.614;2023-02-28T23:21:07;99840.70;;;-0.46;42.68
75945;BME280;64628;50.104;14.614;2023-02-28T23:23:33;99842.75;;;-1.17;42.55
75945;BME280;64628;50.104;14.614;2023-02-28T23:25:58;99842.46;;;-0.72;42.73
75945;BME280;64628;50.104;14.614;2023-02-28T23:28:23;99841.78;;;-0.75;42.83
75945;BME280;64628;50.104;14.614;2023-02-28T23:30:49;99837.87;;;-0.74;42.89
75945;BME280;64628;50.104;14.614;2023-02-28T23:33:14;99839.44;;;-0.74;42.85
75945;BME280;64628;50.104;14.614;2023-02-28T23:35:40;99836.82;;;-0.54;42.89
75945;BME280;64628;50.104;14.614;2023-02-28T23:38:05;99840.39;;;-0.82;43.03
75945;BME280;64628;50.104;14.614;2023-02-28T23:40:31;99839.96;;;-0.77;43.04
75945;BME280;64628;50.104;14.614;2023-02-28T23:42:57;99843.56;;;-0.80;43.09
75945;BME280;64628;50.104;14.614;2023-02-28T23:45:22;99844.07;;;-0.87;43.23
75945;BME280;64628;50.104;14.614;2023-02-28T23:47:47;99844.38;;;-0.91;43.34
75945;BME280;64628;50.104;14.614;2023-02-28T23:50:13;99845.94;;;-0.72;43.33
75945;BME280;64628;50.104;14.614;2023-02-28T23:52:38;99844.13;;;-0.99;43.59
75945;BME280;64628;50.104;14.614;2023-02-28T23:55:05;99842.74;;;-1.01;43.46
75945;BME280;64628;50.104;14.614;2023-02-28T23:57:30;99842.69;;;-1.02;43.50
75945;BME280;64628;50.104;14.614;2023-02-28T23:59:56;99846.19;;;-1.04;43.54
